createdAt,value
2023-04-30T00:04:57.413Z,7.3
2023-04-30T00:14:57.899Z,7.1
2023-04-30T00:24:58.030Z,6.8
2023-04-30T00:34:59.042Z,6.3
2023-04-30T00:44:59.751Z,6.1
2023-04-30T00:55:00.431Z,6.1
2023-04-30T01:05:01.178Z,6
2023-04-30T01:15:01.709Z,5.9
2023-04-30T01:25:02.108Z,5.9
2023-04-30T01:35:03.307Z,5.6
2023-04-30T01:45:03.291Z,5.3
2023-04-30T01:55:03.674Z,5.1
2023-04-30T02:05:04.469Z,5
2023-04-30T02:15:05.080Z,4.7
2023-04-30T02:25:05.314Z,4.5
2023-04-30T02:35:05.671Z,4.4
2023-04-30T02:45:06.490Z,4.6
2023-04-30T02:55:06.977Z,4.5
2023-04-30T03:05:07.267Z,4.5
2023-04-30T03:15:08.104Z,4.5
2023-04-30T03:25:08.972Z,4.2
2023-04-30T04:05:11.044Z,3.8
2023-04-30T04:15:11.848Z,4.6
2023-04-30T04:25:12.044Z,4.8
2023-04-30T04:35:12.683Z,4.9
2023-04-30T05:05:14.081Z,5.1
2023-04-30T05:15:14.980Z,5
2023-04-30T05:35:16.269Z,5.5
2023-04-30T05:45:17.011Z,5.8
2023-04-30T05:55:17.409Z,6.1
2023-04-30T06:05:17.712Z,6.4
2023-04-30T06:15:18.651Z,6.7
2023-04-30T06:25:19.284Z,7
2023-04-30T06:45:20.655Z,8.7
2023-04-30T06:55:21.068Z,9.3
2023-04-30T07:05:21.935Z,9.8
2023-04-30T07:15:22.712Z,10
2023-04-30T07:25:23.239Z,10.4
2023-04-30T07:35:23.557Z,10.8
2023-04-30T07:45:23.930Z,11.2
2023-04-30T07:55:24.421Z,11.5
2023-04-30T08:05:24.834Z,11.7
2023-04-30T08:15:25.731Z,11.9
2023-04-30T08:25:26.390Z,12.2
2023-04-30T08:35:26.761Z,12.4
2023-04-30T08:45:27.775Z,12.9
2023-04-30T08:55:28.015Z,13
2023-04-30T09:05:28.441Z,13
2023-04-30T09:15:29.215Z,13.8
2023-04-30T09:35:30.379Z,14
2023-04-30T09:45:32.225Z,14.4
2023-04-30T10:05:31.419Z,14.5
2023-04-30T10:15:31.749Z,15
2023-04-30T10:25:31.905Z,14.8
2023-04-30T10:45:33.345Z,15.4
2023-04-30T10:55:34.355Z,15.4
2023-04-30T11:05:35.122Z,15.8
2023-04-30T11:15:35.839Z,15.8
2023-04-30T11:25:36.724Z,16.2
2023-04-30T11:35:37.118Z,16.1
2023-04-30T11:45:37.965Z,16.2
2023-04-30T11:55:38.945Z,16.3
2023-04-30T12:05:39.953Z,16.2
2023-04-30T12:15:40.223Z,16.3
2023-04-30T15:55:54.155Z,17.2
2023-04-30T16:05:54.546Z,17.1
2023-04-30T16:15:55.145Z,17
2023-04-30T16:25:55.290Z,16.9
2023-04-30T16:35:55.919Z,17
2023-04-30T16:45:56.602Z,17
2023-04-30T16:55:56.753Z,16.9
2023-04-30T17:05:57.797Z,16.6
2023-04-30T17:16:00.016Z,16.4
2023-04-30T17:25:58.378Z,16.2
2023-04-30T17:35:58.532Z,16.1
2023-04-30T17:45:59.644Z,15.9
2023-04-30T18:06:00.802Z,15.7
2023-04-30T18:16:01.145Z,15.5
2023-04-30T18:26:01.722Z,15.3
2023-04-30T18:36:04.868Z,15.1
2023-04-30T18:46:03.247Z,14.9
2023-04-30T18:56:03.717Z,14.6
2023-04-30T19:16:05.235Z,14.1
2023-04-30T19:26:05.761Z,13.8
2023-04-30T19:36:06.232Z,13.6
2023-04-30T19:46:07.238Z,13.4
2023-04-30T19:56:08.051Z,13.2
2023-04-30T20:06:08.398Z,13
2023-04-30T20:16:08.647Z,12.7
2023-04-30T20:26:08.754Z,12.5
2023-04-30T20:36:09.762Z,12.4
2023-04-30T20:46:10.458Z,12.2
2023-04-30T20:56:11.516Z,12
